Time;durP1;ratioP1;P1;durP2;ratioP2;P2;SDS_P1;SDS_P2;PMS_P1;PMS_P2;Temp;Humidity;BMP_temperature;BMP_pressure;BME280_temperature;BME280_humidity;BME280_pressure;Samples;Min_cycle;Max_cycle;Signal;HPM_P1;HPM_P2
2022/03/30 00:01:58;;;;;;;0.60;0.60;;;4.20;99.90;;;;;;4994031;28;20188;-90
2022/03/30 00:04:24;;;;;;;0.90;0.80;;;4.20;99.90;;;;;;4993687;28;20447;-92
2022/03/30 00:06:49;;;;;;;1.00;0.90;;;4.20;99.90;;;;;;4994443;28;20611;-91
2022/03/30 00:09:15;;;;;;;0.90;0.80;;;4.30;99.90;;;;;;4993086;28;20217;-91
2022/03/30 00:11:40;;;;;;;1.60;1.23;;;4.40;99.90;;;;;;5008228;28;20775;-91
2022/03/30 00:14:07;;;;;;;0.90;0.80;;;4.40;99.90;;;;;;4994119;28;20196;-91
2022/03/30 00:16:34;;;;;;;0.80;0.80;;;4.30;99.90;;;;;;5002519;28;20279;-92
2022/03/30 00:19:00;;;;;;;1.17;0.90;;;4.40;99.90;;;;;;4993817;28;20440;-92
2022/03/30 00:21:25;;;;;;;1.10;0.80;;;4.40;99.90;;;;;;4995012;28;20491;-92
2022/03/30 00:23:52;;;;;;;1.10;0.97;;;4.30;99.90;;;;;;4995064;28;20459;-91
2022/03/30 00:26:18;;;;;;;1.00;0.80;;;4.40;99.90;;;;;;4986862;28;20280;-92
2022/03/30 00:28:44;;;;;;;0.80;0.70;;;4.30;99.90;;;;;;4981990;28;20484;-92
2022/03/30 00:31:11;;;;;;;1.63;1.43;;;4.40;99.90;;;;;;4998078;28;20537;-93
2022/03/30 00:33:37;;;;;;;0.93;0.83;;;4.40;99.90;;;;;;4988599;28;20657;-92
2022/03/30 00:36:03;;;;;;;0.80;0.70;;;4.30;99.90;;;;;;5006249;28;20578;-92
2022/03/30 00:38:28;;;;;;;0.90;0.80;;;4.30;99.90;;;;;;5014822;28;20443;-91
2022/03/30 00:40:54;;;;;;;0.83;0.70;;;4.30;99.90;;;;;;4995788;28;20185;-91
2022/03/30 00:43:20;;;;;;;0.90;0.80;;;4.40;99.90;;;;;;4993857;28;20177;-92
2022/03/30 00:45:45;;;;;;;0.87;0.80;;;4.30;99.90;;;;;;4998318;28;20239;-91
2022/03/30 00:48:11;;;;;;;0.83;0.70;;;4.40;99.90;;;;;;4993918;28;20181;-92
2022/03/30 00:50:37;;;;;;;0.80;0.70;;;4.40;99.90;;;;;;4999571;28;20219;-91
2022/03/30 00:53:02;;;;;;;0.80;0.70;;;4.40;99.90;;;;;;4995629;28;20552;-91
2022/03/30 00:55:28;;;;;;;0.80;0.80;;;4.50;99.90;;;;;;5000975;28;20564;-91
2022/03/30 00:57:54;;;;;;;0.80;0.80;;;4.50;99.90;;;;;;4987157;28;20182;-91
2022/03/30 01:00:21;;;;;;;0.80;0.80;;;4.40;99.90;;;;;;4996488;28;20240;-91
2022/03/30 01:02:48;;;;;;;0.80;0.80;;;4.40;99.90;;;;;;4992833;28;20540;-92
2022/03/30 01:05:14;;;;;;;0.80;0.70;;;4.50;99.90;;;;;;4996091;28;20512;-92
2022/03/30 01:07:40;;;;;;;0.90;0.80;;;4.50;99.90;;;;;;5003348;28;20443;-91
2022/03/30 01:10:08;;;;;;;0.87;0.73;;;4.40;99.90;;;;;;5007375;28;21033;-91
2022/03/30 01:12:38;;;;;;;0.83;0.70;;;4.40;99.90;;;;;;4992163;28;20201;-92
2022/03/30 01:15:06;;;;;;;0.80;0.73;;;4.40;99.90;;;;;;4994094;28;20486;-92
2022/03/30 01:17:31;;;;;;;0.80;0.80;;;4.40;99.90;;;;;;5007284;28;20455;-92
2022/03/30 01:19:57;;;;;;;0.80;0.70;;;4.40;99.90;;;;;;4984092;28;20463;-91
2022/03/30 01:22:23;;;;;;;0.80;0.80;;;4.40;99.90;;;;;;4993647;28;20177;-91
2022/03/30 01:24:51;;;;;;;0.90;0.77;;;4.40;99.90;;;;;;5004626;28;20181;-92
2022/03/30 01:27:17;;;;;;;1.10;1.00;;;4.30;99.90;;;;;;4981991;28;20489;-91
2022/03/30 01:32:31;;;;;;;0.80;0.80;;;4.30;99.90;;;;;;4993815;28;20280;-92
2022/03/30 01:34:59;;;;;;;1.10;0.90;;;4.30;99.90;;;;;;4991645;28;20436;-92
2022/03/30 01:37:27;;;;;;;1.10;0.93;;;4.40;99.90;;;;;;4993076;28;20428;-91
2022/03/30 01:39:53;;;;;;;1.10;0.87;;;4.30;99.90;;;;;;4991529;28;20539;-92
2022/03/30 01:42:19;;;;;;;0.90;0.80;;;4.30;99.90;;;;;;4991518;28;20826;-92
2022/03/30 01:44:45;;;;;;;0.90;0.80;;;4.20;99.90;;;;;;4992658;28;20535;-92
2022/03/30 01:47:11;;;;;;;0.80;0.80;;;4.30;99.90;;;;;;4988419;28;20209;-92
2022/03/30 01:49:37;;;;;;;0.80;0.63;;;4.30;99.90;;;;;;4985843;28;21204;-92
2022/03/30 01:52:03;;;;;;;0.90;0.80;;;4.30;99.90;;;;;;5000791;28;21007;-93
2022/03/30 01:54:34;;;;;;;2.63;1.97;;;4.30;99.90;;;;;;4993669;28;20441;-92
2022/03/30 01:57:00;;;;;;;0.90;0.80;;;4.30;99.90;;;;;;4988178;28;20456;-91
2022/03/30 01:59:26;;;;;;;0.90;0.80;;;4.30;99.90;;;;;;5007810;28;20456;-92
2022/03/30 02:01:52;;;;;;;0.80;0.80;;;4.30;99.90;;;;;;4990590;28;20201;-92
2022/03/30 02:04:18;;;;;;;0.87;0.80;;;4.30;99.90;;;;;;4992333;28;20204;-91
2022/03/30 02:06:43;;;;;;;0.90;0.80;;;4.30;99.90;;;;;;4991489;28;20834;-92
2022/03/30 02:09:12;;;;;;;0.90;0.80;;;4.30;99.90;;;;;;4991780;28;20476;-92
2022/03/30 02:11:38;;;;;;;0.87;0.70;;;4.30;99.90;;;;;;4988967;28;20545;-92
2022/03/30 02:14:03;;;;;;;0.80;0.70;;;4.30;99.90;;;;;;4992132;28;20443;-91
2022/03/30 02:16:29;;;;;;;0.90;0.80;;;4.30;99.90;;;;;;4991891;28;20506;-91
2022/03/30 02:18:54;;;;;;;1.03;0.93;;;4.30;99.90;;;;;;4999685;28;20220;-92
2022/03/30 02:21:20;;;;;;;1.13;1.03;;;4.30;99.90;;;;;;5004212;28;20181;-92
2022/03/30 02:23:46;;;;;;;5.50;3.77;;;4.30;99.90;;;;;;4989145;28;20229;-92
2022/03/30 02:26:14;;;;;;;1.57;1.10;;;4.30;99.90;;;;;;4999266;28;20252;-91
2022/03/30 02:28:40;;;;;;;1.10;1.00;;;4.30;99.90;;;;;;4991897;28;20487;-92
2022/03/30 02:31:06;;;;;;;1.30;1.07;;;4.20;99.90;;;;;;5002100;28;21106;-92
2022/03/30 02:33:32;;;;;;;1.60;1.23;;;4.20;99.90;;;;;;4992019;28;20513;-92
2022/03/30 02:35:57;;;;;;;0.90;0.80;;;4.20;99.90;;;;;;4992616;28;20440;-92
2022/03/30 02:38:23;;;;;;;1.00;0.90;;;4.20;99.90;;;;;;4990962;28;20189;-92
2022/03/30 02:40:48;;;;;;;1.23;1.13;;;4.20;99.90;;;;;;4989915;28;20193;-92
2022/03/30 02:43:17;;;;;;;0.80;0.70;;;4.10;99.90;;;;;;4988864;28;20173;-92
2022/03/30 02:45:43;;;;;;;1.17;1.10;;;4.10;99.90;;;;;;4984518;28;20281;-92
2022/03/30 02:48:18;;;;;;;0.80;0.80;;;4.10;99.90;;;;;;5007680;28;20455;-92
2022/03/30 02:50:49;;;;;;;1.20;1.10;;;4.10;99.90;;;;;;4991495;28;20524;-92
2022/03/30 02:53:15;;;;;;;0.47;0.47;;;4.10;99.90;;;;;;4989828;28;20447;-92
2022/03/30 02:55:41;;;;;;;3.40;3.20;;;4.10;99.90;;;;;;4997554;28;20443;-92
2022/03/30 02:58:08;;;;;;;0.90;0.90;;;4.10;99.90;;;;;;4991319;28;20448;-92
2022/03/30 03:00:34;;;;;;;0.80;0.80;;;4.10;99.90;;;;;;4991080;28;20185;-92
2022/03/30 03:03:02;;;;;;;1.00;0.90;;;4.10;99.90;;;;;;4991554;28;20802;-92
2022/03/30 03:05:32;;;;;;;0.80;0.80;;;4.10;99.90;;;;;;4990550;28;20244;-92
2022/03/30 03:07:58;;;;;;;0.60;0.60;;;4.10;99.90;;;;;;4992489;28;20443;-92
2022/03/30 03:10:25;;;;;;;0.80;0.80;;;4.10;99.90;;;;;;4990383;28;20489;-92
2022/03/30 03:12:51;;;;;;;1.27;1.07;;;4.00;99.90;;;;;;4990191;28;20436;-92
2022/03/30 03:15:17;;;;;;;0.90;0.80;;;4.10;99.90;;;;;;4992582;28;20598;-92
2022/03/30 03:17:42;;;;;;;0.63;0.63;;;4.00;99.90;;;;;;4993907;28;20181;-92
2022/03/30 03:20:08;;;;;;;0.80;0.80;;;3.80;99.90;;;;;;5002005;28;20195;-92
2022/03/30 03:22:34;;;;;;;0.80;0.70;;;3.80;99.90;;;;;;5010839;28;20197;-92
2022/03/30 03:24:59;;;;;;;0.80;0.70;;;3.90;99.90;;;;;;4997434;28;21027;-91
2022/03/30 03:27:25;;;;;;;0.83;0.80;;;3.90;99.90;;;;;;4992545;28;20268;-92
2022/03/30 03:29:50;;;;;;;1.17;1.07;;;3.90;99.90;;;;;;4994721;28;20223;-91
2022/03/30 03:32:16;;;;;;;0.40;0.40;;;3.90;99.90;;;;;;4998839;28;20196;-92
2022/03/30 03:34:41;;;;;;;0.50;0.50;;;3.80;99.90;;;;;;4996175;28;20189;-92
2022/03/30 03:37:08;;;;;;;0.70;0.67;;;3.80;99.90;;;;;;4997716;28;20208;-92
2022/03/30 03:39:33;;;;;;;0.97;0.87;;;3.70;99.90;;;;;;4998768;28;20180;-92
2022/03/30 03:41:59;;;;;;;1.10;1.00;;;3.70;99.90;;;;;;4992593;28;20450;-93
2022/03/30 03:44:24;;;;;;;0.40;0.40;;;3.70;99.90;;;;;;4991328;28;20313;-93
2022/03/30 03:46:50;;;;;;;0.40;0.40;;;3.70;99.90;;;;;;4996425;28;20550;-92
2022/03/30 03:49:15;;;;;;;0.50;0.50;;;3.80;99.90;;;;;;4994968;28;20267;-92
2022/03/30 03:51:41;;;;;;;5.50;2.20;;;3.90;99.90;;;;;;4995128;28;20181;-92
2022/03/30 03:54:06;;;;;;;0.70;0.70;;;3.80;99.90;;;;;;4995017;28;20543;-91
2022/03/30 03:56:32;;;;;;;0.90;0.80;;;3.80;99.90;;;;;;4997263;28;20276;-92
2022/03/30 03:58:57;;;;;;;1.00;0.90;;;3.80;99.90;;;;;;4994406;28;20213;-91
2022/03/30 04:01:23;;;;;;;0.90;0.70;;;3.80;99.90;;;;;;4991128;28;20221;-91
2022/03/30 04:03:49;;;;;;;0.50;0.50;;;3.80;99.90;;;;;;4993304;28;20583;-92
2022/03/30 04:06:14;;;;;;;0.50;0.50;;;3.80;99.90;;;;;;4993679;28;20656;-92
2022/03/30 04:08:40;;;;;;;0.40;0.40;;;3.80;99.90;;;;;;4995043;28;20223;-92
2022/03/30 04:11:05;;;;;;;0.40;0.40;;;3.80;99.90;;;;;;4994009;28;20243;-92
2022/03/30 04:13:31;;;;;;;0.40;0.40;;;3.70;99.90;;;;;;4992045;28;20185;-92
2022/03/30 04:15:57;;;;;;;0.47;0.47;;;3.60;99.90;;;;;;4994569;28;20185;-92
2022/03/30 04:18:23;;;;;;;0.40;0.40;;;3.60;99.90;;;;;;4993576;28;20448;-92
2022/03/30 04:20:48;;;;;;;0.50;0.50;;;3.70;99.90;;;;;;4981533;28;20535;-92
2022/03/30 04:23:14;;;;;;;0.50;0.50;;;3.60;99.90;;;;;;4998088;28;20224;-93
2022/03/30 04:25:39;;;;;;;0.40;0.40;;;3.60;99.90;;;;;;4989801;28;20292;-93
2022/03/30 04:28:05;;;;;;;0.80;0.80;;;3.70;99.90;;;;;;4990674;28;20182;-93
2022/03/30 04:30:31;;;;;;;0.80;0.80;;;3.70;99.90;;;;;;4996197;28;20217;-92
2022/03/30 04:32:56;;;;;;;1.00;0.90;;;3.70;99.90;;;;;;4994492;28;20189;-91
2022/03/30 04:35:25;;;;;;;0.97;0.87;;;3.70;99.90;;;;;;4994039;28;20448;-92
2022/03/30 04:37:53;;;;;;;1.00;0.93;;;3.60;99.90;;;;;;4996795;28;20185;-91
2022/03/30 04:40:18;;;;;;;0.90;0.80;;;3.70;99.90;;;;;;4993982;28;20441;-89
2022/03/30 04:42:44;;;;;;;0.80;0.70;;;3.60;99.90;;;;;;4993257;28;20443;-92
2022/03/30 04:45:10;;;;;;;0.87;0.70;;;3.70;99.90;;;;;;4994070;28;20177;-92
2022/03/30 04:47:35;;;;;;;0.90;0.80;;;3.60;99.90;;;;;;4994331;28;20711;-92
2022/03/30 04:50:02;;;;;;;0.80;0.77;;;3.60;99.90;;;;;;5007869;28;20650;-92
2022/03/30 04:52:27;;;;;;;0.90;0.80;;;3.60;99.90;;;;;;4994123;28;20181;-92
2022/03/30 04:54:53;;;;;;;1.00;0.90;;;3.60;99.90;;;;;;4992667;28;20451;-91
2022/03/30 04:57:18;;;;;;;1.00;0.90;;;3.60;99.90;;;;;;5002945;28;20189;-92
2022/03/30 04:59:44;;;;;;;0.90;0.80;;;3.60;99.90;;;;;;5001541;28;20215;-92
2022/03/30 05:02:09;;;;;;;0.90;0.73;;;3.50;99.90;;;;;;4987126;28;20236;-92
2022/03/30 05:04:35;;;;;;;1.00;0.90;;;3.50;99.90;;;;;;4991845;28;20197;-91
2022/03/30 05:07:00;;;;;;;0.90;0.80;;;3.50;99.90;;;;;;5003964;28;20239;-91
2022/03/30 05:09:26;;;;;;;2.90;2.10;;;3.50;99.90;;;;;;4995131;28;20318;-92
2022/03/30 05:11:51;;;;;;;1.20;1.10;;;3.30;99.90;;;;;;4991345;28;20201;-90
2022/03/30 05:14:17;;;;;;;0.80;0.70;;;3.20;99.90;;;;;;4994747;28;20186;-92
2022/03/30 05:16:43;;;;;;;1.00;0.90;;;3.20;99.90;;;;;;4998901;28;20177;-92
2022/03/30 05:19:09;;;;;;;0.87;0.80;;;3.20;99.90;;;;;;4990851;28;20223;-94
2022/03/30 05:21:35;;;;;;;0.80;0.80;;;3.20;99.90;;;;;;5007249;28;20654;-93
2022/03/30 05:24:00;;;;;;;1.00;0.90;;;3.20;99.90;;;;;;4975589;28;20445;-91
2022/03/30 05:26:28;;;;;;;1.10;1.00;;;3.30;99.90;;;;;;5007960;28;20181;-92
2022/03/30 05:28:54;;;;;;;1.10;1.00;;;3.30;99.90;;;;;;4989488;28;20185;-91
2022/03/30 05:31:19;;;;;;;1.87;1.57;;;3.20;99.90;;;;;;4989108;28;20456;-93
2022/03/30 05:33:45;;;;;;;0.90;0.80;;;3.20;99.90;;;;;;5007630;28;20177;-93
2022/03/30 05:36:12;;;;;;;0.80;0.70;;;3.30;99.90;;;;;;5001088;28;20185;-90
2022/03/30 05:38:37;;;;;;;0.80;0.77;;;3.40;99.90;;;;;;5008917;28;20203;-90
2022/03/30 05:41:03;;;;;;;1.00;0.90;;;3.40;99.90;;;;;;4991614;28;20956;-92
2022/03/30 05:43:29;;;;;;;0.93;0.83;;;3.40;99.90;;;;;;4994083;28;20188;-93
2022/03/30 05:45:55;;;;;;;0.97;0.90;;;3.50;99.90;;;;;;4994418;28;20264;-92
2022/03/30 05:48:21;;;;;;;1.00;0.90;;;3.50;99.90;;;;;;4992528;28;20677;-93
2022/03/30 05:50:47;;;;;;;0.90;0.80;;;3.50;99.90;;;;;;4992800;28;20308;-91
2022/03/30 05:53:17;;;;;;;1.00;0.90;;;3.50;99.90;;;;;;5001747;28;20882;-93
2022/03/30 05:55:44;;;;;;;1.50;1.40;;;3.50;99.90;;;;;;4991110;28;20196;-94
2022/03/30 05:58:11;;;;;;;1.20;1.10;;;3.50;99.90;;;;;;4988248;28;20451;-93
2022/03/30 06:00:37;;;;;;;4.90;2.47;;;3.60;99.90;;;;;;4994124;28;20476;-93
2022/03/30 06:03:02;;;;;;;0.80;0.80;;;3.50;99.90;;;;;;4994952;28;20912;-92
2022/03/30 06:05:28;;;;;;;1.00;0.90;;;3.60;99.90;;;;;;4993532;28;20476;-93
2022/03/30 06:07:57;;;;;;;1.13;1.03;;;3.60;99.90;;;;;;4994781;28;20205;-93
2022/03/30 06:10:25;;;;;;;1.00;0.90;;;3.60;99.90;;;;;;4987343;28;20209;-93
2022/03/30 06:12:50;;;;;;;1.00;0.90;;;3.70;99.90;;;;;;5003713;28;20491;-93
2022/03/30 06:15:16;;;;;;;1.10;1.00;;;3.70;99.90;;;;;;4994630;28;20464;-94
2022/03/30 06:17:41;;;;;;;1.00;0.90;;;3.80;99.90;;;;;;5010162;28;20224;-94
2022/03/30 06:20:08;;;;;;;0.90;0.80;;;4.00;99.90;;;;;;4994155;28;20185;-93
2022/03/30 06:22:34;;;;;;;0.80;0.80;;;4.00;99.90;;;;;;4993591;28;20197;-91
2022/03/30 06:25:00;;;;;;;0.90;0.80;;;4.20;99.90;;;;;;4987181;28;20859;-92
2022/03/30 06:27:25;;;;;;;0.80;0.80;;;4.20;99.90;;;;;;4991576;28;20448;-92
2022/03/30 06:29:51;;;;;;;1.40;1.30;;;4.20;99.90;;;;;;4991720;28;20339;-92
2022/03/30 06:32:16;;;;;;;1.70;1.60;;;4.30;99.90;;;;;;4996808;28;20217;-94
2022/03/30 06:34:42;;;;;;;1.23;1.13;;;4.40;99.90;;;;;;5010405;28;20180;-95
2022/03/30 06:37:07;;;;;;;0.80;0.70;;;4.40;99.90;;;;;;5005890;28;20548;-95
2022/03/30 06:39:34;;;;;;;1.27;1.17;;;4.50;99.90;;;;;;4996446;28;20187;-95
2022/03/30 06:41:59;;;;;;;1.10;1.00;;;4.70;99.90;;;;;;4979143;28;20182;-94
2022/03/30 06:44:25;;;;;;;0.80;0.70;;;4.90;99.90;;;;;;5005930;28;20754;-95
2022/03/30 06:46:51;;;;;;;0.93;0.80;;;5.10;99.90;;;;;;4990921;28;20186;-95
2022/03/30 06:49:16;;;;;;;0.80;0.70;;;5.10;99.90;;;;;;5008878;28;20200;-95
2022/03/30 06:51:42;;;;;;;0.80;0.70;;;5.20;99.90;;;;;;4989992;28;20978;-95
2022/03/30 06:54:08;;;;;;;0.80;0.70;;;5.20;99.90;;;;;;4985960;28;20192;-95
2022/03/30 06:56:33;;;;;;;0.80;0.70;;;5.30;99.90;;;;;;4992483;28;20184;-94
2022/03/30 06:58:59;;;;;;;0.80;0.70;;;5.40;99.90;;;;;;4982649;28;20200;-95
2022/03/30 07:01:27;;;;;;;0.87;0.87;;;5.30;99.90;;;;;;5006445;28;20239;-95
2022/03/30 07:03:53;;;;;;;0.83;0.70;;;5.30;99.90;;;;;;4989392;28;20944;-90
2022/03/30 07:06:19;;;;;;;1.00;0.80;;;5.40;99.90;;;;;;4987344;28;20567;-92
2022/03/30 07:11:28;;;;;;;0.87;0.83;;;5.70;99.90;;;;;;4978803;28;20232;-94
2022/03/30 07:13:56;;;;;;;2.47;2.27;;;5.90;99.90;;;;;;5001818;28;20464;-93
2022/03/30 07:16:23;;;;;;;0.80;0.70;;;5.80;99.90;;;;;;4993406;28;20196;-93
2022/03/30 07:18:49;;;;;;;0.80;0.70;;;5.80;99.90;;;;;;4989683;28;20487;-91
2022/03/30 07:21:15;;;;;;;0.90;0.70;;;5.90;99.90;;;;;;4987523;28;20502;-91
2022/03/30 07:23:40;;;;;;;0.80;0.63;;;5.80;99.90;;;;;;4991646;28;20440;-89
2022/03/30 07:26:06;;;;;;;0.90;0.80;;;5.90;99.90;;;;;;4989746;28;20185;-86
2022/03/30 07:28:32;;;;;;;1.20;0.90;;;6.00;99.90;;;;;;4998901;28;20208;-86
2022/03/30 07:30:58;;;;;;;1.43;1.00;;;6.00;99.90;;;;;;4994769;28;20216;-88
2022/03/30 07:33:24;;;;;;;2.00;1.90;;;6.00;99.90;;;;;;4995953;28;20455;-94
2022/03/30 07:35:50;;;;;;;0.97;0.87;;;6.30;99.90;;;;;;4986866;28;20212;-90
2022/03/30 07:38:18;;;;;;;0.80;0.70;;;6.40;99.90;;;;;;5002548;28;20451;-90
2022/03/30 07:40:46;;;;;;;1.20;0.90;;;6.50;99.90;;;;;;5005842;28;20455;-91
2022/03/30 07:43:12;;;;;;;0.90;0.70;;;6.70;99.90;;;;;;5006333;28;20443;-91
2022/03/30 07:45:39;;;;;;;0.90;0.70;;;7.10;99.90;;;;;;4991388;28;20448;-90
2022/03/30 07:48:05;;;;;;;0.80;0.60;;;7.10;99.90;;;;;;4979831;28;20560;-87
2022/03/30 07:50:32;;;;;;;1.33;1.23;;;6.60;99.90;;;;;;4990448;28;20527;-88
2022/03/30 07:52:57;;;;;;;0.90;0.83;;;6.60;99.90;;;;;;4984163;28;20444;-85
2022/03/30 07:55:24;;;;;;;0.90;0.70;;;6.40;99.90;;;;;;4984375;28;20512;-85
2022/03/30 07:57:50;;;;;;;1.00;0.90;;;6.40;99.90;;;;;;4986721;28;20602;-87
2022/03/30 08:00:17;;;;;;;0.90;0.70;;;7.00;99.90;;;;;;4985826;28;20444;-86
2022/03/30 08:02:44;;;;;;;0.90;0.80;;;7.20;99.90;;;;;;4982463;28;20184;-87
2022/03/30 08:05:12;;;;;;;1.20;1.10;;;7.40;99.90;;;;;;5001239;28;20471;-89
2022/03/30 08:07:40;;;;;;;0.80;0.70;;;7.10;99.90;;;;;;5006298;28;20961;-87
2022/03/30 08:10:08;;;;;;;1.23;0.73;;;6.90;99.90;;;;;;4984191;28;20934;-87
2022/03/30 08:12:34;;;;;;;1.40;1.30;;;6.70;99.90;;;;;;4988324;28;20443;-91
2022/03/30 08:15:03;;;;;;;1.67;1.03;;;6.50;99.90;;;;;;4997714;28;20451;-92
2022/03/30 08:17:29;;;;;;;1.97;1.80;;;6.20;99.90;;;;;;5004186;28;20448;-91
2022/03/30 08:19:57;;;;;;;1.03;0.90;;;6.10;99.90;;;;;;4993605;28;20458;-91
2022/03/30 08:22:26;;;;;;;2.13;0.90;;;6.10;99.90;;;;;;5018054;28;20443;-90
2022/03/30 08:25:00;;;;;;;1.83;1.40;;;6.00;99.90;;;;;;4998808;28;20447;-90
2022/03/30 08:27:28;;;;;;;1.17;0.87;;;6.10;99.90;;;;;;4994048;28;20431;-91
2022/03/30 08:29:55;;;;;;;0.90;0.70;;;6.00;99.90;;;;;;4990627;28;20515;-90
2022/03/30 08:32:21;;;;;;;0.83;0.70;;;5.70;99.90;;;;;;4980269;28;20448;-90
2022/03/30 08:34:49;;;;;;;1.30;0.93;;;5.70;99.90;;;;;;4985987;28;20452;-89
2022/03/30 08:37:14;;;;;;;1.37;1.27;;;5.80;99.90;;;;;;4992448;28;20523;-90
2022/03/30 08:39:40;;;;;;;1.17;1.07;;;5.80;99.90;;;;;;4995485;28;20542;-88
2022/03/30 08:42:08;;;;;;;1.07;0.83;;;5.60;99.90;;;;;;4997907;28;21045;-87
2022/03/30 08:44:35;;;;;;;1.00;0.90;;;5.70;99.90;;;;;;4985857;28;20945;-86
2022/03/30 08:47:01;;;;;;;0.90;0.80;;;5.70;99.90;;;;;;4990724;28;20463;-86
2022/03/30 08:49:33;;;;;;;1.00;0.80;;;5.80;99.90;;;;;;4990826;28;20468;-86
2022/03/30 08:51:59;;;;;;;0.90;0.73;;;5.80;99.90;;;;;;4990245;28;20460;-86
2022/03/30 08:54:24;;;;;;;0.90;0.70;;;5.80;99.90;;;;;;4998063;28;20526;-86
2022/03/30 08:56:50;;;;;;;1.47;1.03;;;5.90;99.90;;;;;;4988293;28;20518;-86
2022/03/30 08:59:19;;;;;;;1.70;1.10;;;6.00;99.90;;;;;;5005961;28;20235;-83
2022/03/30 09:01:45;;;;;;;0.90;0.80;;;6.00;99.90;;;;;;5004094;28;20185;-84
2022/03/30 09:04:12;;;;;;;1.73;0.90;;;6.10;99.90;;;;;;4993195;28;20856;-87
2022/03/30 09:06:50;;;;;;;0.80;0.77;;;6.20;99.90;;;;;;4994178;28;20638;-87
2022/03/30 09:09:33;;;;;;;0.90;0.70;;;6.10;99.90;;;;;;4981352;28;20551;-85
2022/03/30 09:12:00;;;;;;;0.80;0.70;;;6.20;99.90;;;;;;4986575;28;20488;-85
2022/03/30 09:14:29;;;;;;;0.80;0.70;;;6.20;99.90;;;;;;4987597;28;20447;-85
2022/03/30 09:16:58;;;;;;;1.53;1.43;;;6.20;99.90;;;;;;4993000;28;20454;-86
2022/03/30 09:19:24;;;;;;;0.80;0.80;;;6.10;99.90;;;;;;4992948;28;20455;-86
2022/03/30 09:21:54;;;;;;;0.80;0.63;;;6.00;99.90;;;;;;4985898;28;20559;-85
2022/03/30 09:24:22;;;;;;;0.80;0.63;;;6.00;99.90;;;;;;4985636;28;20221;-85
2022/03/30 09:26:50;;;;;;;0.80;0.70;;;6.00;99.90;;;;;;4996784;28;20452;-85
2022/03/30 09:29:21;;;;;;;0.80;0.70;;;6.00;99.90;;;;;;4994915;28;20451;-86
2022/03/30 09:31:51;;;;;;;1.00;0.90;;;6.00;99.90;;;;;;4997135;28;20639;-85
2022/03/30 09:34:19;;;;;;;0.80;0.60;;;6.00;99.90;;;;;;4991013;28;20432;-85
2022/03/30 09:36:46;;;;;;;0.50;0.50;;;6.10;99.90;;;;;;4987913;28;20452;-85
2022/03/30 09:39:33;;;;;;;0.33;0.33;;;6.10;99.90;;;;;;4986693;28;20511;-85
2022/03/30 09:42:02;;;;;;;0.73;0.67;;;6.20;99.90;;;;;;4989453;28;20443;-82
2022/03/30 09:44:30;;;;;;;0.90;0.70;;;6.30;99.90;;;;;;5006092;28;20451;-84
2022/03/30 09:47:05;;;;;;;0.80;0.80;;;6.30;99.90;;;;;;4993146;28;20448;-84
2022/03/30 09:49:37;;;;;;;0.80;0.70;;;6.40;99.90;;;;;;4989589;28;20607;-86
2022/03/30 09:52:23;;;;;;;1.00;0.90;;;6.40;99.90;;;;;;4989349;28;20448;-85
2022/03/30 09:54:54;;;;;;;3.50;1.30;;;6.40;99.90;;;;;;4979262;28;20444;-85
2022/03/30 09:57:27;;;;;;;0.80;0.70;;;6.60;99.90;;;;;;5010626;28;20522;-85
2022/03/30 10:00:14;;;;;;;0.80;0.70;;;6.70;99.90;;;;;;4982073;28;20441;-85
2022/03/30 10:02:49;;;;;;;0.67;0.60;;;7.40;99.90;;;;;;5000986;28;20857;-85
2022/03/30 10:05:17;;;;;;;0.30;0.30;;;9.10;99.90;;;;;;4991911;28;20458;-83
2022/03/30 10:07:45;;;;;;;0.30;0.30;;;9.30;99.90;;;;;;4990052;28;20456;-83
2022/03/30 10:10:12;;;;;;;0.20;0.20;;;9.70;99.90;;;;;;4996977;28;20551;-83
2022/03/30 10:12:39;;;;;;;0.20;0.20;;;10.60;99.90;;;;;;4985650;28;20463;-84
2022/03/30 10:15:07;;;;;;;0.50;0.40;;;11.50;99.90;;;;;;4987794;28;20506;-82
2022/03/30 10:17:33;;;;;;;0.90;0.60;;;11.70;99.90;;;;;;4992329;28;20448;-84
2022/03/30 10:20:01;;;;;;;1.00;0.60;;;12.00;99.90;;;;;;4987540;28;20920;-86
2022/03/30 10:22:58;;;;;;;0.80;0.50;;;11.40;99.90;;;;;;4989466;28;20271;-85
2022/03/30 10:25:57;;;;;;;0.80;0.50;;;10.80;99.90;;;;;;4981990;28;20444;-88
2022/03/30 10:28:45;;;;;;;0.90;0.60;;;10.00;98.50;;;;;;4999924;28;20543;-87
2022/03/30 10:31:12;;;;;;;2.67;1.03;;;10.60;98.40;;;;;;5003443;28;21221;-91
2022/03/30 10:33:42;;;;;;;0.20;0.20;;;12.20;99.10;;;;;;5003233;28;20448;-90
2022/03/30 10:36:29;;;;;;;0.10;0.10;;;13.10;95.10;;;;;;4985092;28;20515;-90
2022/03/30 10:39:16;;;;;;;0.10;0.10;;;13.40;95.10;;;;;;4987848;28;20445;-91
2022/03/30 10:42:10;;;;;;;0.10;0.10;;;12.40;95.30;;;;;;4990109;28;20510;-91
2022/03/30 10:44:45;;;;;;;0.30;0.30;;;11.10;96.80;;;;;;4982924;28;20467;-90
2022/03/30 10:47:22;;;;;;;0.20;0.20;;;10.60;98.50;;;;;;4985439;28;20956;-89
2022/03/30 10:49:56;;;;;;;1.23;0.70;;;10.20;98.10;;;;;;4981933;28;20800;-88
2022/03/30 10:52:35;;;;;;;1.00;0.70;;;9.80;98.20;;;;;;4988464;28;20456;-89
2022/03/30 10:55:13;;;;;;;0.90;0.60;;;9.10;99.90;;;;;;4988149;28;20494;-89
2022/03/30 10:57:53;;;;;;;1.37;0.90;;;9.00;99.90;;;;;;4991948;28;20526;-89
2022/03/30 11:00:37;;;;;;;2.10;2.00;;;8.80;99.90;;;;;;5006497;28;20531;-90
2022/03/30 11:03:08;;;;;;;0.30;0.30;;;8.80;99.90;;;;;;4994173;28;20816;-93
2022/03/30 11:05:33;;;;;;;0.40;0.37;;;8.80;99.90;;;;;;4990042;28;21088;-90
2022/03/30 11:08:00;;;;;;;0.83;0.63;;;8.60;99.90;;;;;;4987800;28;20445;-92
2022/03/30 11:10:45;;;;;;;0.30;0.30;;;8.60;99.90;;;;;;4988276;28;20685;-93
2022/03/30 11:13:11;;;;;;;0.20;0.20;;;8.60;99.90;;;;;;4994289;28;20439;-92
2022/03/30 11:15:59;;;;;;;0.20;0.20;;;8.50;99.90;;;;;;4993266;28;20448;-93
2022/03/30 11:18:26;;;;;;;0.20;0.20;;;8.70;99.90;;;;;;5001985;28;20567;-90
2022/03/30 11:21:11;;;;;;;1.93;1.03;;;8.80;99.90;;;;;;4990868;28;20451;-90
2022/03/30 11:23:39;;;;;;;0.30;0.30;;;8.80;99.90;;;;;;5005464;28;20959;-92
2022/03/30 11:26:05;;;;;;;0.70;0.50;;;8.40;99.90;;;;;;4992503;28;20440;-92
2022/03/30 11:28:40;;;;;;;1.27;0.90;;;8.40;99.90;;;;;;4992215;28;20449;-93
2022/03/30 11:31:19;;;;;;;1.07;0.93;;;8.50;99.90;;;;;;4993178;28;20208;-92
2022/03/30 11:33:45;;;;;;;1.67;1.57;;;8.40;99.90;;;;;;4994959;28;20436;-93
2022/03/30 11:36:10;;;;;;;0.87;0.60;;;8.20;99.90;;;;;;4992253;28;20551;-91
2022/03/30 11:38:39;;;;;;;1.00;0.70;;;8.20;99.90;;;;;;4992931;28;20189;-91
2022/03/30 11:41:08;;;;;;;0.87;0.63;;;8.30;99.90;;;;;;4996200;28;20277;-93
2022/03/30 11:45:12;;;;;;;0.93;0.60;;;8.30;99.90;;;;;;4991872;28;20944;-93
2022/03/30 11:46:30;;;;;;;0.30;0.30;;;8.20;99.90;;;;;;4996642;28;20491;-92
2022/03/30 11:49:03;;;;;;;1.10;0.73;;;8.10;99.90;;;;;;4996650;28;20670;-91
2022/03/30 11:51:29;;;;;;;0.50;0.40;;;8.00;99.90;;;;;;4995644;28;20918;-89
2022/03/30 11:54:12;;;;;;;0.30;0.30;;;8.00;99.90;;;;;;4995040;28;20504;-90
2022/03/30 11:56:38;;;;;;;0.20;0.20;;;8.00;99.90;;;;;;4997595;28;20452;-91
2022/03/30 11:59:04;;;;;;;0.30;0.30;;;7.80;99.90;;;;;;4995402;28;20532;-90
2022/03/30 12:01:33;;;;;;;0.30;0.30;;;7.90;99.90;;;;;;4990369;28;20473;-91
2022/03/30 12:03:58;;;;;;;0.57;0.50;;;8.00;99.90;;;;;;4991887;28;20216;-90
2022/03/30 12:06:24;;;;;;;1.17;0.70;;;8.20;99.90;;;;;;4994406;28;20558;-90
2022/03/30 12:08:51;;;;;;;0.43;0.40;;;8.20;99.90;;;;;;4992414;28;20195;-90
2022/03/30 12:11:21;;;;;;;0.30;0.30;;;8.20;99.90;;;;;;5011976;28;20274;-90
2022/03/30 12:13:55;;;;;;;0.30;0.30;;;8.40;99.90;;;;;;4984886;28;20441;-89
2022/03/30 12:16:22;;;;;;;0.30;0.30;;;8.40;99.90;;;;;;4994470;28;20435;-90
2022/03/30 12:18:53;;;;;;;0.20;0.20;;;8.70;99.90;;;;;;4997864;28;20440;-91
2022/03/30 12:21:24;;;;;;;0.90;0.80;;;8.60;99.90;;;;;;4993217;28;20448;-91
2022/03/30 12:24:02;;;;;;;1.80;1.70;;;8.80;99.90;;;;;;4990117;28;20456;-89
2022/03/30 12:26:28;;;;;;;0.30;0.20;;;9.00;99.90;;;;;;4992821;28;20443;-89
2022/03/30 12:29:11;;;;;;;0.20;0.20;;;8.80;99.90;;;;;;4986215;28;20513;-91
2022/03/30 12:31:41;;;;;;;0.30;0.30;;;9.20;99.90;;;;;;4986865;28;20463;-88
2022/03/30 12:34:18;;;;;;;1.00;0.70;;;9.40;99.90;;;;;;5000256;28;20459;-87
2022/03/30 12:36:49;;;;;;;1.00;0.70;;;9.40;99.90;;;;;;4984459;28;20927;-89
2022/03/30 12:39:28;;;;;;;0.90;0.60;;;9.50;99.90;;;;;;4998622;28;20447;-87
2022/03/30 12:42:02;;;;;;;0.83;0.60;;;9.40;99.90;;;;;;5006662;28;20456;-89
2022/03/30 12:44:38;;;;;;;0.30;0.30;;;9.30;99.90;;;;;;4986686;28;20520;-88
2022/03/30 12:47:13;;;;;;;0.77;0.50;;;9.60;99.90;;;;;;4993840;28;20432;-87
2022/03/30 12:49:42;;;;;;;0.20;0.20;;;9.50;99.90;;;;;;4991222;28;20484;-91
2022/03/30 12:52:12;;;;;;;0.20;0.20;;;10.00;99.90;;;;;;4994683;28;20503;-91
2022/03/30 12:54:40;;;;;;;0.20;0.20;;;10.00;99.90;;;;;;4995195;28;20452;-90
2022/03/30 12:57:05;;;;;;;0.20;0.20;;;9.80;99.90;;;;;;4998240;28;20961;-91
2022/03/30 12:59:31;;;;;;;0.20;0.20;;;10.40;99.90;;;;;;4995784;28;20448;-92
2022/03/30 13:01:58;;;;;;;0.20;0.20;;;9.60;99.90;;;;;;4996297;28;20192;-92
2022/03/30 13:04:28;;;;;;;0.20;0.20;;;9.30;99.90;;;;;;4982291;28;20614;-92
2022/03/30 13:07:28;;;;;;;0.20;0.20;;;9.10;99.90;;;;;;4986113;28;20483;-90